sensor_id;sensor_type;location;lat;lon;timestamp;pressure;altitude;pressure_sealevel;temperature;humidity
77574;BME280;66710;48.868;9.080;2023-09-07T00:01:33;98331.16;;;14.91;100.00
77574;BME280;66710;48.868;9.080;2023-09-07T00:03:59;98326.47;;;14.96;100.00
77574;BME280;66710;48.868;9.080;2023-09-07T00:06:24;98332.69;;;15.02;100.00
77574;BME280;66710;48.868;9.080;2023-09-07T00:08:50;98322.81;;;15.01;100.00
77574;BME280;66710;48.868;9.080;2023-09-07T00:11:16;98325.03;;;14.99;100.00
77574;BME280;66710;48.868;9.080;2023-09-07T00:13:41;98324.69;;;15.06;100.00
77574;BME280;66710;48.868;9.080;2023-09-07T00:16:06;98323.44;;;14.93;100.00
77574;BME280;66710;48.868;9.080;2023-09-07T00:18:33;98335.09;;;14.85;100.00
77574;BME280;66710;48.868;9.080;2023-09-07T00:20:59;98331.53;;;14.84;100.00
77574;BME280;66710;48.868;9.080;2023-09-07T00:23:25;98329.09;;;14.83;100.00
77574;BME280;66710;48.868;9.080;2023-09-07T00:25:50;98326.28;;;14.88;100.00
77574;BME280;66710;48.868;9.080;2023-09-07T00:28:15;98329.91;;;14.83;100.00
77574;BME280;66710;48.868;9.080;2023-09-07T00:30:41;98334.81;;;14.86;100.00
77574;BME280;66710;48.868;9.080;2023-09-07T00:33:07;98322.75;;;14.82;100.00
77574;BME280;66710;48.868;9.080;2023-09-07T00:35:32;98323.59;;;14.83;100.00
77574;BME280;66710;48.868;9.080;2023-09-07T00:37:58;98328.47;;;14.86;100.00
77574;BME280;66710;48.868;9.080;2023-09-07T00:40:23;98333.22;;;14.80;100.00
77574;BME280;66710;48.868;9.080;2023-09-07T00:42:48;98336.25;;;14.78;100.00
77574;BME280;66710;48.868;9.080;2023-09-07T00:45:14;98335.25;;;14.69;100.00
77574;BME280;66710;48.868;9.080;2023-09-07T00:47:39;98327.03;;;14.69;100.00
77574;BME280;66710;48.868;9.080;2023-09-07T00:50:05;98326.75;;;14.71;100.00
77574;BME280;66710;48.868;9.080;2023-09-07T00:52:34;98326.50;;;14.67;100.00
77574;BME280;66710;48.868;9.080;2023-09-07T00:55:02;98327.78;;;14.75;100.00
77574;BME280;66710;48.868;9.080;2023-09-07T00:57:29;98329.78;;;14.69;100.00
77574;BME280;66710;48.868;9.080;2023-09-07T00:59:54;98331.25;;;14.56;100.00
77574;BME280;66710;48.868;9.080;2023-09-07T01:02:20;98334.00;;;14.56;100.00
77574;BME280;66710;48.868;9.080;2023-09-07T01:04:45;98331.38;;;14.46;100.00
77574;BME280;66710;48.868;9.080;2023-09-07T01:08:19;98331.75;;;14.34;100.00
77574;BME280;66710;48.868;9.080;2023-09-07T01:10:11;98332.34;;;14.31;100.00
77574;BME280;66710;48.868;9.080;2023-09-07T01:12:36;98329.59;;;14.31;100.00
77574;BME280;66710;48.868;9.080;2023-09-07T01:15:01;98325.50;;;14.29;100.00
77574;BME280;66710;48.868;9.080;2023-09-07T01:17:27;98327.16;;;14.30;100.00
77574;BME280;66710;48.868;9.080;2023-09-07T01:19:54;98329.06;;;14.29;100.00
77574;BME280;66710;48.868;9.080;2023-09-07T01:22:22;98329.91;;;14.30;100.00
77574;BME280;66710;48.868;9.080;2023-09-07T01:24:48;98326.06;;;14.26;100.00
77574;BME280;66710;48.868;9.080;2023-09-07T01:27:15;98327.16;;;14.30;100.00
77574;BME280;66710;48.868;9.080;2023-09-07T01:29:41;98321.63;;;14.35;100.00
77574;BME280;66710;48.868;9.080;2023-09-07T01:32:06;98320.25;;;14.32;100.00
77574;BME280;66710;48.868;9.080;2023-09-07T01:34:32;98313.34;;;14.40;100.00
77574;BME280;66710;48.868;9.080;2023-09-07T01:36:57;98320.25;;;14.32;100.00
77574;BME280;66710;48.868;9.080;2023-09-07T01:39:22;98313.78;;;14.23;100.00
77574;BME280;66710;48.868;9.080;2023-09-07T01:41:48;98315.28;;;14.10;100.00
77574;BME280;66710;48.868;9.080;2023-09-07T01:44:13;98319.97;;;14.04;100.00
77574;BME280;66710;48.868;9.080;2023-09-07T01:46:38;98325.16;;;14.06;100.00
77574;BME280;66710;48.868;9.080;2023-09-07T01:49:03;98316.16;;;14.00;100.00
77574;BME280;66710;48.868;9.080;2023-09-07T01:51:29;98325.50;;;13.99;100.00
77574;BME280;66710;48.868;9.080;2023-09-07T01:53:54;98324.91;;;14.02;100.00
77574;BME280;66710;48.868;9.080;2023-09-07T01:56:20;98327.91;;;14.06;100.00
77574;BME280;66710;48.868;9.080;2023-09-07T01:58:45;98327.66;;;14.02;100.00
77574;BME280;66710;48.868;9.080;2023-09-07T02:01:40;98329.53;;;14.07;100.00
77574;BME280;66710;48.868;9.080;2023-09-07T02:04:05;98329.88;;;14.00;100.00
77574;BME280;66710;48.868;9.080;2023-09-07T02:06:30;98330.44;;;13.97;100.00
77574;BME280;66710;48.868;9.080;2023-09-07T02:08:56;98323.38;;;13.91;100.00
77574;BME280;66710;48.868;9.080;2023-09-07T02:11:21;98327.50;;;13.89;100.00
77574;BME280;66710;48.868;9.080;2023-09-07T02:13:48;98326.22;;;13.76;100.00
77574;BME280;66710;48.868;9.080;2023-09-07T02:16:13;98325.72;;;13.69;100.00
77574;BME280;66710;48.868;9.080;2023-09-07T02:18:38;98324.09;;;13.68;100.00
77574;BME280;66710;48.868;9.080;2023-09-07T02:21:08;98327.63;;;13.73;100.00
77574;BME280;66710;48.868;9.080;2023-09-07T02:23:34;98324.66;;;13.70;100.00
77574;BME280;66710;48.868;9.080;2023-09-07T02:26:00;98330.94;;;13.70;100.00
77574;BME280;66710;48.868;9.080;2023-09-07T02:28:26;98331.72;;;13.71;100.00
77574;BME280;66710;48.868;9.080;2023-09-07T02:30:52;98328.97;;;13.76;100.00
77574;BME280;66710;48.868;9.080;2023-09-07T02:33:17;98330.84;;;13.80;100.00
77574;BME280;66710;48.868;9.080;2023-09-07T02:35:43;98324.00;;;13.78;100.00
77574;BME280;66710;48.868;9.080;2023-09-07T02:38:08;98326.19;;;13.81;100.00
77574;BME280;66710;48.868;9.080;2023-09-07T02:40:43;98320.22;;;13.74;100.00
77574;BME280;66710;48.868;9.080;2023-09-07T02:43:09;98320.81;;;13.65;100.00
77574;BME280;66710;48.868;9.080;2023-09-07T02:45:34;98319.47;;;13.63;100.00
77574;BME280;66710;48.868;9.080;2023-09-07T02:48:00;98318.38;;;13.64;100.00
77574;BME280;66710;48.868;9.080;2023-09-07T02:50:25;98316.44;;;13.70;100.00
77574;BME280;66710;48.868;9.080;2023-09-07T02:52:50;98315.31;;;13.71;100.00
77574;BME280;66710;48.868;9.080;2023-09-07T02:55:16;98315.06;;;13.67;100.00
77574;BME280;66710;48.868;9.080;2023-09-07T02:57:41;98313.47;;;13.61;100.00
77574;BME280;66710;48.868;9.080;2023-09-07T03:00:07;98315.38;;;13.60;100.00
77574;BME280;66710;48.868;9.080;2023-09-07T03:02:36;98322.25;;;13.58;100.00
77574;BME280;66710;48.868;9.080;2023-09-07T03:05:02;98318.47;;;13.54;100.00
77574;BME280;66710;48.868;9.080;2023-09-07T03:07:32;98310.00;;;13.50;100.00
77574;BME280;66710;48.868;9.080;2023-09-07T03:09:58;98317.72;;;13.43;100.00
77574;BME280;66710;48.868;9.080;2023-09-07T03:12:23;98314.41;;;13.41;100.00
77574;BME280;66710;48.868;9.080;2023-09-07T03:14:49;98321.28;;;13.38;100.00
77574;BME280;66710;48.868;9.080;2023-09-07T03:17:16;98317.19;;;13.36;100.00
77574;BME280;66710;48.868;9.080;2023-09-07T03:19:41;98319.66;;;13.27;100.00
77574;BME280;66710;48.868;9.080;2023-09-07T03:22:07;98313.66;;;13.25;100.00
77574;BME280;66710;48.868;9.080;2023-09-07T03:24:33;98318.31;;;13.24;100.00
77574;BME280;66710;48.868;9.080;2023-09-07T03:26:58;98311.75;;;13.25;100.00
77574;BME280;66710;48.868;9.080;2023-09-07T03:29:24;98311.25;;;13.18;100.00
77574;BME280;66710;48.868;9.080;2023-09-07T03:31:50;98312.88;;;13.19;100.00
77574;BME280;66710;48.868;9.080;2023-09-07T03:34:15;98302.22;;;13.13;100.00
77574;BME280;66710;48.868;9.080;2023-09-07T03:36:40;98306.34;;;13.10;100.00
77574;BME280;66710;48.868;9.080;2023-09-07T03:39:06;98307.47;;;13.04;100.00
77574;BME280;66710;48.868;9.080;2023-09-07T03:41:33;98302.50;;;13.11;100.00
77574;BME280;66710;48.868;9.080;2023-09-07T03:43:59;98303.94;;;13.03;100.00
77574;BME280;66710;48.868;9.080;2023-09-07T03:46:26;98301.22;;;12.98;100.00
77574;BME280;66710;48.868;9.080;2023-09-07T03:48:51;98299.34;;;12.94;100.00
77574;BME280;66710;48.868;9.080;2023-09-07T03:51:17;98295.50;;;12.89;100.00
77574;BME280;66710;48.868;9.080;2023-09-07T03:53:42;98302.63;;;12.90;100.00
77574;BME280;66710;48.868;9.080;2023-09-07T03:56:07;98306.47;;;12.84;100.00
77574;BME280;66710;48.868;9.080;2023-09-07T03:58:33;98299.66;;;12.82;100.00
77574;BME280;66710;48.868;9.080;2023-09-07T04:00:59;98296.63;;;12.88;100.00
77574;BME280;66710;48.868;9.080;2023-09-07T04:03:24;98296.59;;;12.94;100.00
77574;BME280;66710;48.868;9.080;2023-09-07T04:05:50;98300.16;;;12.89;100.00
77574;BME280;66710;48.868;9.080;2023-09-07T04:08:15;98294.69;;;12.94;100.00
77574;BME280;66710;48.868;9.080;2023-09-07T04:10:41;98298.53;;;12.88;100.00
77574;BME280;66710;48.868;9.080;2023-09-07T04:13:06;98301.84;;;12.85;100.00
77574;BME280;66710;48.868;9.080;2023-09-07T04:15:33;98292.78;;;12.84;100.00
77574;BME280;66710;48.868;9.080;2023-09-07T04:17:59;98299.09;;;12.85;100.00
77574;BME280;66710;48.868;9.080;2023-09-07T04:20:24;98296.63;;;12.88;100.00
77574;BME280;66710;48.868;9.080;2023-09-07T04:22:51;98299.66;;;12.82;100.00
77574;BME280;66710;48.868;9.080;2023-09-07T04:25:16;98298.78;;;12.86;100.00
77574;BME280;66710;48.868;9.080;2023-09-07T04:27:42;98301.25;;;12.88;100.00
77574;BME280;66710;48.868;9.080;2023-09-07T04:30:08;98298.78;;;12.86;100.00
77574;BME280;66710;48.868;9.080;2023-09-07T04:32:33;98303.72;;;12.84;100.00
77574;BME280;66710;48.868;9.080;2023-09-07T04:34:58;98307.84;;;12.82;100.00
77574;BME280;66710;48.868;9.080;2023-09-07T04:37:24;98305.13;;;12.82;100.00
77574;BME280;66710;48.868;9.080;2023-09-07T04:39:51;98304.00;;;12.83;100.00
77574;BME280;66710;48.868;9.080;2023-09-07T04:42:18;98308.41;;;12.84;100.00
77574;BME280;66710;48.868;9.080;2023-09-07T04:44:43;98305.94;;;12.82;100.00
77574;BME280;66710;48.868;9.080;2023-09-07T04:47:08;98299.38;;;12.83;100.00
77574;BME280;66710;48.868;9.080;2023-09-07T04:49:34;98302.91;;;12.84;100.00
77574;BME280;66710;48.868;9.080;2023-09-07T04:51:59;98308.66;;;12.87;100.00
77574;BME280;66710;48.868;9.080;2023-09-07T04:54:24;98305.91;;;12.87;100.00
77574;BME280;66710;48.868;9.080;2023-09-07T04:56:50;98306.44;;;12.89;100.00
77574;BME280;66710;48.868;9.080;2023-09-07T04:59:15;98314.38;;;12.91;100.00
77574;BME280;66710;48.868;9.080;2023-09-07T05:01:41;98309.44;;;12.93;100.00
77574;BME280;66710;48.868;9.080;2023-09-07T05:04:06;98316.28;;;12.96;100.00
77574;BME280;66710;48.868;9.080;2023-09-07T05:06:32;98317.38;;;12.95;100.00
77574;BME280;66710;48.868;9.080;2023-09-07T05:09:02;98318.75;;;12.92;100.00
77574;BME280;66710;48.868;9.080;2023-09-07T05:11:27;98321.50;;;12.92;100.00
77574;BME280;66710;48.868;9.080;2023-09-07T05:13:53;98319.28;;;12.94;100.00
77574;BME280;66710;48.868;9.080;2023-09-07T05:16:18;98323.34;;;13.02;100.00
77574;BME280;66710;48.868;9.080;2023-09-07T05:18:43;98326.94;;;13.02;100.00
77574;BME280;66710;48.868;9.080;2023-09-07T05:21:13;98327.13;;;13.11;100.00
77574;BME280;66710;48.868;9.080;2023-09-07T05:23:39;98326.28;;;13.16;100.00
77574;BME280;66710;48.868;9.080;2023-09-07T05:26:05;98324.09;;;13.18;100.00
77574;BME280;66710;48.868;9.080;2023-09-07T05:28:30;98328.19;;;13.20;100.00
77574;BME280;66710;48.868;9.080;2023-09-07T05:30:55;98328.19;;;13.20;100.00
77574;BME280;66710;48.868;9.080;2023-09-07T05:33:20;98343.75;;;13.25;100.00
77574;BME280;66710;48.868;9.080;2023-09-07T05:35:46;98340.22;;;13.24;100.00
77574;BME280;66710;48.868;9.080;2023-09-07T05:38:11;98330.31;;;13.28;100.00
77574;BME280;66710;48.868;9.080;2023-09-07T05:40:38;98344.00;;;13.39;100.00
77574;BME280;66710;48.868;9.080;2023-09-07T05:43:04;98340.69;;;13.42;100.00
77574;BME280;66710;48.868;9.080;2023-09-07T05:45:30;98344.47;;;13.51;100.00
77574;BME280;66710;48.868;9.080;2023-09-07T05:47:56;98345.03;;;13.48;100.00
77574;BME280;66710;48.868;9.080;2023-09-07T05:50:22;98343.88;;;13.59;100.00
77574;BME280;66710;48.868;9.080;2023-09-07T05:52:47;98347.09;;;13.67;100.00
77574;BME280;66710;48.868;9.080;2023-09-07T05:55:12;98347.06;;;13.72;100.00
77574;BME280;66710;48.868;9.080;2023-09-07T05:57:38;98349.78;;;13.77;100.00
77574;BME280;66710;48.868;9.080;2023-09-07T06:00:04;98350.88;;;13.76;100.00
77574;BME280;66710;48.868;9.080;2023-09-07T06:02:30;98344.78;;;13.84;100.00
77574;BME280;66710;48.868;9.080;2023-09-07T06:04:55;98347.13;;;14.01;100.00
77574;BME280;66710;48.868;9.080;2023-09-07T06:07:21;98351.13;;;14.14;100.00
77574;BME280;66710;48.868;9.080;2023-09-07T06:09:46;98352.63;;;14.30;100.00
77574;BME280;66710;48.868;9.080;2023-09-07T06:12:12;98346.25;;;14.40;100.00
77574;BME280;66710;48.868;9.080;2023-09-07T06:14:38;98345.34;;;14.45;100.00
77574;BME280;66710;48.868;9.080;2023-09-07T06:17:04;98346.91;;;14.56;100.00
77574;BME280;66710;48.868;9.080;2023-09-07T06:19:29;98341.44;;;14.80;100.00
77574;BME280;66710;48.868;9.080;2023-09-07T06:21:54;98341.16;;;14.82;100.00
77574;BME280;66710;48.868;9.080;2023-09-07T06:24:20;98344.13;;;14.85;100.00
77574;BME280;66710;48.868;9.080;2023-09-07T06:26:45;98347.00;;;14.99;100.00
77574;BME280;66710;48.868;9.080;2023-09-07T06:29:11;98344.34;;;15.13;100.00
77574;BME280;66710;48.868;9.080;2023-09-07T06:31:36;98342.91;;;15.40;100.00
77574;BME280;66710;48.868;9.080;2023-09-07T06:34:02;98345.28;;;15.46;100.00
77574;BME280;66710;48.868;9.080;2023-09-07T06:36:29;98350.31;;;15.58;100.00
77574;BME280;66710;48.868;9.080;2023-09-07T06:38:55;98339.22;;;15.87;100.00
77574;BME280;66710;48.868;9.080;2023-09-07T06:41:20;98345.56;;;16.02;100.00
77574;BME280;66710;48.868;9.080;2023-09-07T06:43:46;98342.03;;;16.34;100.00
77574;BME280;66710;48.868;9.080;2023-09-07T06:46:11;98338.59;;;16.70;100.00
77574;BME280;66710;48.868;9.080;2023-09-07T06:48:36;98353.13;;;16.90;100.00
77574;BME280;66710;48.868;9.080;2023-09-07T06:51:05;98354.41;;;17.34;100.00
77574;BME280;66710;48.868;9.080;2023-09-07T06:53:32;98354.91;;;17.36;100.00
77574;BME280;66710;48.868;9.080;2023-09-07T06:56:02;98356.53;;;17.51;100.00
77574;BME280;66710;48.868;9.080;2023-09-07T06:58:28;98363.78;;;17.83;100.00
77574;BME280;66710;48.868;9.080;2023-09-07T07:00:57;98360.88;;;18.25;100.00
77574;BME280;66710;48.868;9.080;2023-09-07T07:03:26;98366.50;;;18.42;100.00
77574;BME280;66710;48.868;9.080;2023-09-07T07:05:52;98364.81;;;18.55;100.00
77574;BME280;66710;48.868;9.080;2023-09-07T07:08:17;98367.91;;;18.85;100.00
77574;BME280;66710;48.868;9.080;2023-09-07T07:10:42;98373.19;;;18.72;99.51
77574;BME280;66710;48.868;9.080;2023-09-07T07:13:08;98369.09;;;19.01;100.00
77574;BME280;66710;48.868;9.080;2023-09-07T07:15:34;98371.16;;;19.36;96.68
77574;BME280;66710;48.868;9.080;2023-09-07T07:18:01;98374.56;;;19.24;97.35
77574;BME280;66710;48.868;9.080;2023-09-07T07:20:26;98376.97;;;19.17;96.94
77574;BME280;66710;48.868;9.080;2023-09-07T07:22:51;98377.22;;;19.73;94.82
77574;BME280;66710;48.868;9.080;2023-09-07T07:25:17;98371.22;;;19.62;93.12
77574;BME280;66710;48.868;9.080;2023-09-07T07:27:42;98368.66;;;19.83;92.96
77574;BME280;66710;48.868;9.080;2023-09-07T07:30:08;98362.97;;;19.79;92.38
77574;BME280;66710;48.868;9.080;2023-09-07T07:32:34;98367.59;;;20.66;87.19
77574;BME280;66710;48.868;9.080;2023-09-07T07:35:00;98367.47;;;20.45;85.87
77574;BME280;66710;48.868;9.080;2023-09-07T07:37:25;98368.75;;;20.65;84.79
77574;BME280;66710;48.868;9.080;2023-09-07T07:39:50;98367.69;;;20.87;83.16
77574;BME280;66710;48.868;9.080;2023-09-07T07:42:16;98362.19;;;21.17;82.23
77574;BME280;66710;48.868;9.080;2023-09-07T07:44:43;98359.88;;;21.19;81.96
77574;BME280;66710;48.868;9.080;2023-09-07T07:47:09;98362.16;;;21.26;84.83
77574;BME280;66710;48.868;9.080;2023-09-07T07:49:34;98354.84;;;21.51;80.01
77574;BME280;66710;48.868;9.080;2023-09-07T07:52:00;98354.53;;;21.44;77.81
77574;BME280;66710;48.868;9.080;2023-09-07T07:54:26;98358.31;;;21.48;78.16
77574;BME280;66710;48.868;9.080;2023-09-07T07:56:51;98359.81;;;21.66;76.53
77574;BME280;66710;48.868;9.080;2023-09-07T07:59:17;98355.97;;;21.80;76.07
77574;BME280;66710;48.868;9.080;2023-09-07T08:01:42;98361.53;;;22.34;75.95
77574;BME280;66710;48.868;9.080;2023-09-07T08:04:08;98359.41;;;21.76;77.87
77574;BME280;66710;48.868;9.080;2023-09-07T08:06:33;98355.13;;;22.00;75.54
77574;BME280;66710;48.868;9.080;2023-09-07T08:08:59;98355.81;;;22.51;75.08
77574;BME280;66710;48.868;9.080;2023-09-07T08:11:25;98357.22;;;22.58;74.36
77574;BME280;66710;48.868;9.080;2023-09-07T08:13:51;98358.28;;;22.78;71.98
77574;BME280;66710;48.868;9.080;2023-09-07T08:16:17;98356.03;;;23.29;68.61
77574;BME280;66710;48.868;9.080;2023-09-07T08:18:43;98349.28;;;22.93;69.11
77574;BME280;66710;48.868;9.080;2023-09-07T08:21:09;98346.31;;;23.11;73.47
77574;BME280;66710;48.868;9.080;2023-09-07T08:23:34;98354.69;;;22.65;69.70
77574;BME280;66710;48.868;9.080;2023-09-07T08:25:59;98348.09;;;22.82;69.57
77574;BME280;66710;48.868;9.080;2023-09-07T08:28:25;98353.72;;;23.31;68.01
77574;BME280;66710;48.868;9.080;2023-09-07T08:30:51;98354.44;;;23.40;68.31
77574;BME280;66710;48.868;9.080;2023-09-07T08:33:19;98352.22;;;23.46;69.37
77574;BME280;66710;48.868;9.080;2023-09-07T08:35:45;98353.78;;;24.12;65.04
77574;BME280;66710;48.868;9.080;2023-09-07T08:38:11;98349.72;;;24.22;64.13
77574;BME280;66710;48.868;9.080;2023-09-07T08:40:38;98354.56;;;24.25;63.38
77574;BME280;66710;48.868;9.080;2023-09-07T08:43:08;98359.19;;;23.93;64.07
77574;BME280;66710;48.868;9.080;2023-09-07T08:45:40;98355.31;;;24.82;63.61
77574;BME280;66710;48.868;9.080;2023-09-07T08:48:08;98355.06;;;24.43;62.47
77574;BME280;66710;48.868;9.080;2023-09-07T08:50:33;98350.22;;;24.12;68.20
77574;BME280;66710;48.868;9.080;2023-09-07T08:53:03;98359.19;;;24.49;63.31
77574;BME280;66710;48.868;9.080;2023-09-07T08:55:28;98358.66;;;24.44;62.32
77574;BME280;66710;48.868;9.080;2023-09-07T08:57:54;98358.34;;;24.61;61.28
77574;BME280;66710;48.868;9.080;2023-09-07T09:00:19;98357.75;;;24.68;59.96
77574;BME280;66710;48.868;9.080;2023-09-07T09:02:48;98360.19;;;24.69;59.85
77574;BME280;66710;48.868;9.080;2023-09-07T09:05:14;98354.97;;;24.84;62.44
77574;BME280;66710;48.868;9.080;2023-09-07T09:07:39;98357.69;;;25.63;61.19
77574;BME280;66710;48.868;9.080;2023-09-07T09:10:08;98350.59;;;25.50;60.61
77574;BME280;66710;48.868;9.080;2023-09-07T09:12:34;98363.50;;;25.39;60.77
77574;BME280;66710;48.868;9.080;2023-09-07T09:15:01;98364.53;;;25.66;61.46
77574;BME280;66710;48.868;9.080;2023-09-07T09:17:28;98362.41;;;25.59;58.37
77574;BME280;66710;48.868;9.080;2023-09-07T09:19:54;98357.50;;;25.72;57.57
77574;BME280;66710;48.868;9.080;2023-09-07T09:22:19;98349.44;;;26.64;55.82
77574;BME280;66710;48.868;9.080;2023-09-07T09:24:47;98347.31;;;26.58;56.00
77574;BME280;66710;48.868;9.080;2023-09-07T09:27:13;98352.22;;;26.64;55.28
77574;BME280;66710;48.868;9.080;2023-09-07T09:29:38;98339.53;;;25.89;60.16
77574;BME280;66710;48.868;9.080;2023-09-07T09:32:05;98341.59;;;26.11;59.33
77574;BME280;66710;48.868;9.080;2023-09-07T09:34:35;98348.66;;;26.25;57.94
77574;BME280;66710;48.868;9.080;2023-09-07T09:37:02;98344.84;;;26.76;56.97
77574;BME280;66710;48.868;9.080;2023-09-07T09:39:28;98344.00;;;26.33;57.31
77574;BME280;66710;48.868;9.080;2023-09-07T09:41:54;98340.91;;;27.03;55.15
77574;BME280;66710;48.868;9.080;2023-09-07T09:44:22;98348.13;;;25.80;57.10
77574;BME280;66710;48.868;9.080;2023-09-07T09:46:51;98337.97;;;26.50;56.81
77574;BME280;66710;48.868;9.080;2023-09-07T09:49:20;98337.25;;;26.99;56.25
77574;BME280;66710;48.868;9.080;2023-09-07T09:51:48;98344.53;;;27.27;55.52
77574;BME280;66710;48.868;9.080;2023-09-07T09:54:16;98330.44;;;26.54;56.21
77574;BME280;66710;48.868;9.080;2023-09-07T09:56:41;98338.75;;;26.70;57.41
77574;BME280;66710;48.868;9.080;2023-09-07T09:59:07;98335.25;;;27.00;56.51
77574;BME280;66710;48.868;9.080;2023-09-07T10:01:38;98337.00;;;27.08;54.64
77574;BME280;66710;48.868;9.080;2023-09-07T10:04:08;98339.50;;;26.90;54.10
77574;BME280;66710;48.868;9.080;2023-09-07T10:06:34;98335.00;;;27.09;57.22
77574;BME280;66710;48.868;9.080;2023-09-07T10:09:05;98335.25;;;27.76;51.50
77574;BME280;66710;48.868;9.080;2023-09-07T10:11:39;98331.53;;;27.69;53.74
77574;BME280;66710;48.868;9.080;2023-09-07T10:14:05;98336.38;;;27.18;56.39
77574;BME280;66710;48.868;9.080;2023-09-07T10:16:45;98329.41;;;27.58;51.97
77574;BME280;66710;48.868;9.080;2023-09-07T10:19:21;98335.09;;;27.39;52.40
77574;BME280;66710;48.868;9.080;2023-09-07T10:21:47;98329.84;;;27.11;54.38
77574;BME280;66710;48.868;9.080;2023-09-07T10:29:23;98328.41;;;27.74;53.52
77574;BME280;66710;48.868;9.080;2023-09-07T10:31:51;98327.59;;;27.43;54.08
77574;BME280;66710;48.868;9.080;2023-09-07T10:34:17;98317.91;;;27.94;52.70
77574;BME280;66710;48.868;9.080;2023-09-07T10:36:42;98317.69;;;27.26;54.24
77574;BME280;66710;48.868;9.080;2023-09-07T10:39:08;98311.31;;;27.83;51.32
77574;BME280;66710;48.868;9.080;2023-09-07T10:41:44;98302.41;;;28.04;51.29
77574;BME280;66710;48.868;9.080;2023-09-07T10:44:09;98307.69;;;28.46;52.25
77574;BME280;66710;48.868;9.080;2023-09-07T10:46:39;98300.97;;;27.56;52.12
77574;BME280;66710;48.868;9.080;2023-09-07T10:49:08;98301.00;;;28.54;51.21
77574;BME280;66710;48.868;9.080;2023-09-07T10:51:44;98292.28;;;28.29;51.22
77574;BME280;66710;48.868;9.080;2023-09-07T10:54:17;98296.03;;;28.44;52.30
77574;BME280;66710;48.868;9.080;2023-09-07T10:56:45;98295.44;;;28.62;51.22
77574;BME280;66710;48.868;9.080;2023-09-07T10:59:13;98292.63;;;28.62;53.68
77574;BME280;66710;48.868;9.080;2023-09-07T11:01:38;98291.66;;;28.88;52.42
77574;BME280;66710;48.868;9.080;2023-09-07T11:04:04;98288.41;;;28.79;49.44
77574;BME280;66710;48.868;9.080;2023-09-07T11:06:30;98288.41;;;29.30;49.15
77574;BME280;66710;48.868;9.080;2023-09-07T11:08:59;98282.75;;;29.23;48.89
77574;BME280;66710;48.868;9.080;2023-09-07T11:11:24;98286.75;;;28.74;50.71
77574;BME280;66710;48.868;9.080;2023-09-07T11:13:51;98284.13;;;28.13;52.07
77574;BME280;66710;48.868;9.080;2023-09-07T11:16:16;98278.13;;;28.97;51.10
77574;BME280;66710;48.868;9.080;2023-09-07T11:18:42;98292.66;;;29.13;47.87
77574;BME280;66710;48.868;9.080;2023-09-07T11:21:07;98275.06;;;29.79;49.47
77574;BME280;66710;48.868;9.080;2023-09-07T11:23:33;98276.13;;;29.57;46.83
77574;BME280;66710;48.868;9.080;2023-09-07T11:26:05;98276.09;;;29.53;48.59
77574;BME280;66710;48.868;9.080;2023-09-07T11:28:31;98276.91;;;29.57;47.31
77574;BME280;66710;48.868;9.080;2023-09-07T11:30:58;98276.75;;;29.28;49.37
77574;BME280;66710;48.868;9.080;2023-09-07T11:33:24;98272.06;;;28.91;48.97
77574;BME280;66710;48.868;9.080;2023-09-07T11:35:51;98270.28;;;29.94;47.16
77574;BME280;66710;48.868;9.080;2023-09-07T11:38:17;98279.22;;;30.25;46.64
77574;BME280;66710;48.868;9.080;2023-09-07T11:40:43;98278.81;;;30.23;49.74
77574;BME280;66710;48.868;9.080;2023-09-07T11:43:14;98272.09;;;29.58;46.17
77574;BME280;66710;48.868;9.080;2023-09-07T11:45:41;98267.47;;;29.94;47.10
77574;BME280;66710;48.868;9.080;2023-09-07T11:48:06;98268.75;;;30.18;46.74
77574;BME280;66710;48.868;9.080;2023-09-07T11:50:35;98262.84;;;30.70;44.60
77574;BME280;66710;48.868;9.080;2023-09-07T11:53:00;98264.25;;;29.85;46.53
77574;BME280;66710;48.868;9.080;2023-09-07T11:55:26;98260.81;;;30.53;43.36
77574;BME280;66710;48.868;9.080;2023-09-07T11:57:51;98266.38;;;30.28;45.44
77574;BME280;66710;48.868;9.080;2023-09-07T12:00:17;98256.41;;;30.55;45.54
77574;BME280;66710;48.868;9.080;2023-09-07T12:02:43;98256.00;;;31.07;42.66
77574;BME280;66710;48.868;9.080;2023-09-07T12:05:08;98245.56;;;30.68;46.66
77574;BME280;66710;48.868;9.080;2023-09-07T12:07:35;98251.19;;;30.83;43.84
77574;BME280;66710;48.868;9.080;2023-09-07T12:10:01;98241.94;;;30.46;44.36
77574;BME280;66710;48.868;9.080;2023-09-07T12:12:27;98244.72;;;30.39;46.64
77574;BME280;66710;48.868;9.080;2023-09-07T12:14:52;98251.19;;;30.75;43.81
77574;BME280;66710;48.868;9.080;2023-09-07T12:17:18;98251.88;;;30.04;45.21
77574;BME280;66710;48.868;9.080;2023-09-07T12:19:45;98234.28;;;30.39;43.96
77574;BME280;66710;48.868;9.080;2023-09-07T12:22:11;98247.16;;;31.19;42.57
77574;BME280;66710;48.868;9.080;2023-09-07T12:24:37;98250.34;;;31.22;42.08
77574;BME280;66710;48.868;9.080;2023-09-07T12:27:02;98237.50;;;30.67;44.07
77574;BME280;66710;48.868;9.080;2023-09-07T12:29:28;98249.94;;;31.23;43.97
77574;BME280;66710;48.868;9.080;2023-09-07T12:31:53;98241.16;;;30.81;42.74
77574;BME280;66710;48.868;9.080;2023-09-07T12:34:18;98233.13;;;30.94;42.19
77574;BME280;66710;48.868;9.080;2023-09-07T12:36:44;98248.75;;;31.24;44.14
77574;BME280;66710;48.868;9.080;2023-09-07T12:39:09;98241.44;;;30.08;44.26
77574;BME280;66710;48.868;9.080;2023-09-07T12:41:37;98241.44;;;31.45;42.57
77574;BME280;66710;48.868;9.080;2023-09-07T12:44:03;98240.53;;;31.80;42.47
77574;BME280;66710;48.868;9.080;2023-09-07T12:46:28;98237.94;;;31.08;43.94
77574;BME280;66710;48.868;9.080;2023-09-07T12:48:54;98239.50;;;31.13;42.59
77574;BME280;66710;48.868;9.080;2023-09-07T12:51:19;98219.03;;;30.98;40.64
77574;BME280;66710;48.868;9.080;2023-09-07T12:53:44;98230.97;;;31.63;40.33
77574;BME280;66710;48.868;9.080;2023-09-07T12:56:10;98238.41;;;32.09;38.78